createdAt,value
2019-04-16T00:02:01.716Z,101017.73
2019-04-16T00:04:53.746Z,101019.13
2019-04-16T00:07:48.333Z,101012.25
2019-04-16T00:10:27.094Z,101011.73
2019-04-16T00:13:20.614Z,101013.45
2019-04-16T00:15:54.533Z,101015.21
2019-04-16T00:18:26.534Z,101012.63
2019-04-16T00:21:16.066Z,101007.94
2019-04-16T00:24:07.038Z,101007.48
2019-04-16T00:26:39.564Z,101011.76
2019-04-16T00:29:11.504Z,101006.76
2019-04-16T00:31:43.432Z,101011.58
2019-04-16T00:34:15.144Z,101016.05
2019-04-16T00:36:48.795Z,101009.70
2019-04-16T00:39:24.806Z,101015.81
2019-04-16T00:41:56.404Z,101012.03
2019-04-16T00:44:29.153Z,101012.14
2019-04-16T00:47:01.214Z,101016.95
2019-04-16T00:49:33.474Z,101029.89
2019-04-16T00:52:06.770Z,101022.16
2019-04-16T00:54:39.330Z,101026.02
2019-04-16T00:57:10.464Z,101024.28
2019-04-16T00:59:42.574Z,101023.02
2019-04-16T01:02:13.792Z,101022.20
2019-04-16T01:04:45.744Z,101017.05
2019-04-16T01:07:18.053Z,101019.67
2019-04-16T01:09:50.102Z,101019.73
2019-04-16T01:12:22.152Z,101021.40
2019-04-16T01:14:53.342Z,101019.27
2019-04-16T01:17:25.423Z,101026.50
2019-04-16T01:19:56.432Z,101023.00
2019-04-16T01:22:28.613Z,101026.39
2019-04-16T01:25:00.763Z,101027.70
2019-04-16T01:27:43.239Z,101032.86
2019-04-16T01:30:16.015Z,101032.51
2019-04-16T01:33:17.674Z,101035.16
2019-04-16T01:35:59.164Z,101037.73
2019-04-16T01:39:07.516Z,101031.30
2019-04-16T01:41:27.844Z,101031.30
2019-04-16T01:43:59.172Z,101030.05
2019-04-16T01:46:32.791Z,101034.36
2019-04-16T01:49:09.765Z,101033.48
2019-04-16T01:51:38.744Z,101035.26
2019-04-16T01:54:10.967Z,101037.91
2019-04-16T01:56:42.034Z,101038.34
2019-04-16T01:59:14.444Z,101036.17
2019-04-16T02:01:46.497Z,101038.70
2019-04-16T02:04:20.472Z,101034.47
2019-04-16T02:06:54.369Z,101037.58
2019-04-16T02:09:26.494Z,101035.45
2019-04-16T02:11:57.702Z,101031.52
2019-04-16T02:14:29.804Z,101031.10
2019-04-16T02:17:02.285Z,101035.41
2019-04-16T02:19:33.607Z,101036.21
2019-04-16T02:22:05.564Z,101035.69
2019-04-16T02:24:37.934Z,101034.42
2019-04-16T02:27:10.359Z,101034.38
2019-04-16T02:29:41.352Z,101043.37
2019-04-16T02:32:13.395Z,101048.01
2019-04-16T02:34:45.966Z,101043.18
2019-04-16T02:37:18.135Z,101041.88
2019-04-16T02:39:52.543Z,101044.45
2019-04-16T02:42:30.699Z,101051.40
2019-04-16T02:44:59.954Z,101049.39
2019-04-16T02:47:40.268Z,101050.68
2019-04-16T02:50:08.763Z,101048.97
2019-04-16T02:52:52.333Z,101064.41
2019-04-16T02:55:45.605Z,101063.48
2019-04-16T02:58:22.417Z,101066.86
2019-04-16T03:01:25.414Z,101061.20
2019-04-16T03:04:03.033Z,101065.48
2019-04-16T03:06:35.194Z,101072.34
2019-04-16T03:09:09.070Z,101074.39
2019-04-16T03:11:41.552Z,101077.41
2019-04-16T03:14:12.662Z,101080.38
2019-04-16T03:17:10.208Z,101078.98
2019-04-16T03:19:44.914Z,101082.72
2019-04-16T03:22:18.414Z,101086.42
2019-04-16T03:24:50.497Z,101088.32
2019-04-16T03:27:22.866Z,101095.71
2019-04-16T03:29:55.057Z,101094.50
2019-04-16T03:32:34.170Z,101097.73
2019-04-16T03:35:04.188Z,101092.02
2019-04-16T03:37:36.757Z,101098.39
2019-04-16T03:40:17.115Z,101092.12
2019-04-16T03:42:43.005Z,101093.41
2019-04-16T03:45:14.702Z,101088.25
2019-04-16T03:47:50.855Z,101093.91
2019-04-16T03:50:20.536Z,101084.08
2019-04-16T03:52:52.584Z,101085.81
2019-04-16T03:55:26.618Z,101083.27
2019-04-16T03:57:58.895Z,101084.89
2019-04-16T04:00:31.464Z,101086.19
2019-04-16T04:03:03.683Z,101083.58
2019-04-16T04:05:35.712Z,101079.72
2019-04-16T04:08:08.042Z,101084.86
2019-04-16T04:10:40.135Z,101086.16
2019-04-16T04:13:17.500Z,101082.67
2019-04-16T04:15:46.115Z,101082.30
2019-04-16T04:18:17.272Z,101084.45
2019-04-16T04:20:50.549Z,101088.73
2019-04-16T04:23:25.406Z,101086.53
2019-04-16T04:25:56.772Z,101096.02
2019-04-16T04:28:27.916Z,101098.27
2019-04-16T04:31:03.367Z,101090.98
2019-04-16T04:33:41.614Z,101095.70
2019-04-16T04:36:12.722Z,101097.42
2019-04-16T04:38:46.402Z,101097.39
2019-04-16T04:41:22.793Z,101092.25
2019-04-16T04:43:53.856Z,101092.68
2019-04-16T04:46:27.813Z,101094.47
2019-04-16T04:49:00.456Z,101090.70
2019-04-16T04:51:33.320Z,101085.70
2019-04-16T04:54:06.021Z,101093.20
2019-04-16T04:56:38.339Z,101088.67
2019-04-16T04:59:10.587Z,101097.51
2019-04-16T05:01:42.754Z,101101.14
2019-04-16T05:04:28.050Z,101101.73
2019-04-16T05:07:04.968Z,101102.62
2019-04-16T05:09:37.303Z,101111.33
2019-04-16T05:12:10.222Z,101106.75
2019-04-16T05:14:57.540Z,101106.48
2019-04-16T05:17:28.818Z,101098.87
2019-04-16T05:20:01.025Z,101102.94
2019-04-16T05:22:33.462Z,101100.42
2019-04-16T05:25:06.171Z,101104.03
2019-04-16T05:27:41.048Z,101102.95
2019-04-16T05:30:12.562Z,101101.82
2019-04-16T05:32:44.922Z,101106.33
2019-04-16T05:35:17.022Z,101114.22
2019-04-16T05:37:51.534Z,101102.70
2019-04-16T05:40:23.444Z,101107.53
2019-04-16T05:42:58.930Z,101105.09
2019-04-16T05:45:30.209Z,101103.89
2019-04-16T05:48:02.241Z,101105.73
2019-04-16T05:50:33.480Z,101104.95
2019-04-16T05:53:08.465Z,101106.75
2019-04-16T05:55:53.812Z,101098.10
2019-04-16T05:58:27.499Z,101104.53
2019-04-16T06:01:05.085Z,101104.02
2019-04-16T06:03:37.232Z,101103.88
2019-04-16T06:06:09.311Z,101106.75
2019-04-16T06:08:41.786Z,101111.73
2019-04-16T06:11:27.569Z,101109.40
2019-04-16T06:13:58.071Z,101117.01
2019-04-16T06:16:38.942Z,101113.36
2019-04-16T06:19:46.902Z,101116.60
2019-04-16T06:22:29.575Z,101125.58
2019-04-16T06:25:11.675Z,101124.43
2019-04-16T06:28:01.152Z,101112.71
2019-04-16T06:30:41.232Z,101118.91
2019-04-16T06:33:24.137Z,101118.48
2019-04-16T06:36:14.064Z,101119.34
2019-04-16T06:38:54.958Z,101119.95
2019-04-16T06:41:58.912Z,101108.70
2019-04-16T06:44:34.785Z,101120.05
2019-04-16T06:47:22.221Z,101122.77
2019-04-16T06:50:31.102Z,101114.73
2019-04-16T06:53:12.872Z,101116.70
2019-04-16T06:55:55.040Z,101116.59
2019-04-16T06:58:51.097Z,101116.56
2019-04-16T07:01:37.345Z,101110.62
2019-04-16T07:04:29.570Z,101103.83
2019-04-16T07:07:22.161Z,101109.89
2019-04-16T07:10:04.752Z,101110.73
2019-04-16T07:12:38.482Z,101105.60
2019-04-16T07:15:11.382Z,101094.30
2019-04-16T07:17:43.562Z,101104.98
2019-04-16T07:20:16.100Z,101104.32
2019-04-16T07:22:52.705Z,101102.92
2019-04-16T07:25:26.382Z,101098.42
2019-04-16T07:28:04.014Z,101100.30
2019-04-16T07:30:44.036Z,101098.30
2019-04-16T07:33:44.342Z,101098.20
2019-04-16T07:36:48.163Z,101104.50
2019-04-16T07:39:29.731Z,101098.05
2019-04-16T07:42:15.739Z,101099.95
2019-04-16T07:45:00.607Z,101099.33
2019-04-16T07:47:39.631Z,101098.05
2019-04-16T07:50:34.852Z,101096.55
2019-04-16T07:53:19.252Z,101090.38
2019-04-16T07:55:53.908Z,101087.59
2019-04-16T07:58:27.114Z,101093.20
2019-04-16T08:01:00.180Z,101087.33
2019-04-16T08:03:32.502Z,101090.11
2019-04-16T08:06:04.572Z,101082.98
2019-04-16T08:08:38.937Z,101082.22
2019-04-16T08:11:11.341Z,101071.39
2019-04-16T08:13:46.362Z,101075.94
2019-04-16T08:16:24.791Z,101070.27
2019-04-16T08:19:05.853Z,101071.84
2019-04-16T08:21:49.002Z,101063.16
2019-04-16T08:29:07.322Z,101062.42
2019-04-16T08:41:44.078Z,101054.97
2019-04-16T08:44:36.468Z,101048.06
2019-04-16T08:47:44.365Z,101053.39
2019-04-16T08:51:30.384Z,101051.59
2019-04-16T08:54:01.775Z,101051.31
2019-04-16T08:56:39.314Z,101049.06
2019-04-16T08:59:11.967Z,101042.55
2019-04-16T09:07:38.581Z,101049.16
2019-04-16T09:13:18.883Z,101038.03
2019-04-16T09:16:01.795Z,101035.55
2019-04-16T09:19:16.890Z,101034.00
2019-04-16T09:21:49.083Z,101033.47
2019-04-16T09:24:26.615Z,101031.12
2019-04-16T09:27:12.470Z,101033.34
2019-04-16T09:30:16.941Z,101030.82
2019-04-16T09:33:30.400Z,101026.02
2019-04-16T09:36:51.001Z,101025.20
2019-04-16T09:39:46.942Z,101021.41
2019-04-16T09:42:19.181Z,101020.95
2019-04-16T09:44:50.200Z,101020.54
2019-04-16T09:47:22.262Z,101017.93
2019-04-16T09:49:53.223Z,101007.29
2019-04-16T09:52:25.152Z,101012.94
2019-04-16T09:54:58.203Z,101012.37
2019-04-16T09:57:32.392Z,101013.08
2019-04-16T10:00:08.371Z,101009.53
2019-04-16T10:02:44.429Z,101008.97
2019-04-16T10:05:16.976Z,101001.57
2019-04-16T10:07:49.250Z,100992.83
2019-04-16T10:10:24.303Z,100989.86
2019-04-16T10:12:56.485Z,100991.64
2019-04-16T10:15:30.161Z,100985.10
2019-04-16T10:18:09.940Z,100983.75
2019-04-16T10:20:41.795Z,100982.56
2019-04-16T10:24:13.114Z,100983.57
2019-04-16T10:26:46.656Z,100975.30
2019-04-16T10:29:20.206Z,100974.50
2019-04-16T10:31:52.981Z,100972.73
2019-04-16T10:34:25.105Z,100965.22
2019-04-16T10:36:57.250Z,100957.42
2019-04-16T10:39:42.112Z,100961.52
2019-04-16T10:42:31.950Z,100965.80
2019-04-16T10:45:34.765Z,100963.81
2019-04-16T10:48:31.893Z,100957.12
2019-04-16T10:51:15.201Z,100955.09
2019-04-16T10:54:05.258Z,100940.23
2019-04-16T10:56:57.945Z,100952.95
2019-04-16T11:00:03.256Z,100932.37
2019-04-16T11:02:54.091Z,100944.40
2019-04-16T11:05:42.144Z,100945.06
2019-04-16T11:08:14.714Z,100941.06
2019-04-16T11:10:47.608Z,100931.20
2019-04-16T11:13:28.107Z,100935.72
2019-04-16T11:16:04.851Z,100930.75
2019-04-16T11:18:40.477Z,100940.18
2019-04-16T11:21:13.601Z,100935.64
2019-04-16T11:23:45.675Z,100936.39
2019-04-16T11:26:17.665Z,100929.51
2019-04-16T11:28:49.865Z,100929.34
2019-04-16T11:31:22.932Z,100932.27
2019-04-16T11:33:56.106Z,100933.60
2019-04-16T11:36:48.324Z,100929.22
2019-04-16T11:39:20.255Z,100918.16
2019-04-16T11:42:05.409Z,100915.33
2019-04-16T11:45:01.103Z,100930.77
2019-04-16T11:47:34.156Z,100923.83
2019-04-16T11:50:07.548Z,100919.36
2019-04-16T11:52:49.052Z,100922.52
2019-04-16T11:55:22.585Z,100910.45
2019-04-16T11:57:56.271Z,100912.98
2019-04-16T12:00:34.138Z,100913.52
2019-04-16T12:03:28.215Z,100916.78
2019-04-16T12:06:28.299Z,100902.52
2019-04-16T12:09:13.561Z,100896.85
2019-04-16T12:11:58.187Z,100902.89
2019-04-16T12:14:49.091Z,100897.59
2019-04-16T12:17:44.615Z,100899.53
2019-04-16T12:20:24.232Z,100893.41
2019-04-16T12:23:12.704Z,100890.95
2019-04-16T12:26:10.630Z,100888.23
2019-04-16T12:29:00.034Z,100886.23
2019-04-16T12:31:50.051Z,100885.05
2019-04-16T12:34:27.885Z,100879.03
2019-04-16T12:37:15.127Z,100865.76
2019-04-16T12:40:19.050Z,100855.84
2019-04-16T12:43:00.586Z,100867.64
2019-04-16T12:46:00.493Z,100873.23
2019-04-16T12:48:45.246Z,100856.67
2019-04-16T12:51:42.315Z,100855.61
2019-04-16T12:54:39.224Z,100855.62
2019-04-16T12:57:46.830Z,100856.45
2019-04-16T13:00:31.604Z,100857.50
2019-04-16T13:03:22.765Z,100853.62
2019-04-16T13:06:11.926Z,100861.73
2019-04-16T13:09:02.867Z,100858.50
2019-04-16T13:11:45.687Z,100863.23
2019-04-16T13:15:00.642Z,100856.40
2019-04-16T13:17:40.127Z,100871.48
2019-04-16T13:20:31.295Z,100860.22
2019-04-16T13:23:07.716Z,100868.89
2019-04-16T13:25:51.757Z,100864.07
2019-04-16T13:28:23.912Z,100870.22
2019-04-16T13:30:54.970Z,100868.14
2019-04-16T13:33:26.832Z,100868.48
2019-04-16T13:35:59.107Z,100872.13
2019-04-16T13:38:31.019Z,100873.12
2019-04-16T13:41:02.883Z,100865.44
2019-04-16T13:43:39.992Z,100876.28
2019-04-16T13:46:13.157Z,100874.55
2019-04-16T13:48:50.721Z,100863.57
2019-04-16T13:51:24.653Z,100873.48
2019-04-16T13:54:15.724Z,100881.92
2019-04-16T13:56:52.197Z,100886.28
2019-04-16T14:00:03.076Z,100880.63
2019-04-16T14:02:39.581Z,100882.81
2019-04-16T14:05:11.984Z,100882.27
2019-04-16T14:07:43.252Z,100888.98
2019-04-16T14:10:15.710Z,100890.95
2019-04-16T14:12:48.783Z,100883.67
2019-04-16T14:15:31.892Z,100895.42
2019-04-16T14:17:59.384Z,100897.81
2019-04-16T14:20:30.341Z,100902.78
2019-04-16T14:23:02.573Z,100910.48
2019-04-16T14:25:33.572Z,100904.20
2019-04-16T14:28:05.452Z,100902.84
2019-04-16T14:30:42.842Z,100899.68
2019-04-16T14:33:19.082Z,100906.94
2019-04-16T14:35:51.241Z,100907.12
2019-04-16T14:38:33.960Z,100913.09
2019-04-16T14:41:06.610Z,100911.09
2019-04-16T14:43:42.242Z,100914.50
2019-04-16T14:46:14.841Z,100916.80
2019-04-16T14:48:49.261Z,100920.95
2019-04-16T14:51:21.864Z,100919.19
2019-04-16T14:54:14.115Z,100920.08
2019-04-16T14:56:51.455Z,100924.66
2019-04-16T14:59:40.850Z,100921.95
2019-04-16T15:02:31.451Z,100914.92
2019-04-16T15:05:36.722Z,100924.92
2019-04-16T15:08:47.765Z,100917.64
2019-04-16T15:12:01.878Z,100923.27
2019-04-16T15:14:37.229Z,100926.39
2019-04-16T15:17:26.282Z,100927.91
2019-04-16T15:20:36.152Z,100930.56
2019-04-16T15:24:21.751Z,100933.07
2019-04-16T15:47:37.472Z,100962.31
2019-04-16T15:54:31.800Z,100968.52
2019-04-16T15:57:36.072Z,100977.72
2019-04-16T16:00:49.458Z,100986.05
2019-04-16T16:06:27.911Z,100986.95
2019-04-16T16:09:13.962Z,100993.53
2019-04-16T16:11:52.840Z,100993.40
2019-04-16T16:14:46.001Z,100995.09
2019-04-16T16:17:25.352Z,100995.84
2019-04-16T16:19:57.722Z,100998.36
2019-04-16T16:22:33.061Z,101001.04
2019-04-16T16:25:06.629Z,100997.97
2019-04-16T16:27:47.382Z,101007.55
2019-04-16T16:30:30.982Z,101007.09
2019-04-16T16:33:05.312Z,101004.48
2019-04-16T16:35:56.896Z,101003.80
2019-04-16T16:38:16.291Z,101001.58
2019-04-16T16:41:02.481Z,101012.31
2019-04-16T16:43:55.541Z,101014.92
2019-04-16T16:46:56.490Z,101010.64
2019-04-16T16:49:36.082Z,101002.47
2019-04-16T16:52:44.049Z,101005.19
2019-04-16T16:55:10.601Z,101012.58
2019-04-16T17:01:21.965Z,101008.66
2019-04-16T17:04:16.099Z,101013.45
2019-04-16T17:06:50.141Z,101016.91
2019-04-16T17:09:44.730Z,101015.67
2019-04-16T17:12:19.211Z,101019.72
2019-04-16T17:14:54.310Z,101018.43
2019-04-16T17:17:33.767Z,101016.73
2019-04-16T17:20:09.681Z,101026.33
2019-04-16T17:22:48.419Z,101013.78
2019-04-16T17:25:36.322Z,101023.80
2019-04-16T17:27:59.821Z,101024.25
2019-04-16T17:30:40.572Z,101026.86
2019-04-16T17:33:25.140Z,101025.55
2019-04-16T17:36:00.649Z,101024.73
2019-04-16T17:38:46.379Z,101033.13
2019-04-16T17:41:55.269Z,101043.14
2019-04-16T17:45:41.120Z,101041.85
2019-04-16T17:48:33.046Z,101033.13
2019-04-16T17:51:27.055Z,101038.81
2019-04-16T17:54:10.561Z,101037.14
2019-04-16T17:56:59.823Z,101039.36
2019-04-16T17:59:50.861Z,101032.78
2019-04-16T18:02:45.021Z,101038.05
2019-04-16T18:05:34.363Z,101034.23
2019-04-16T18:08:24.345Z,101026.89
2019-04-16T18:11:15.732Z,101020.45
2019-04-16T18:13:53.647Z,101010.51
2019-04-16T18:16:32.117Z,101007.56
2019-04-16T18:19:11.422Z,101004.58
2019-04-16T18:22:03.807Z,101002.91
2019-04-16T18:24:51.341Z,101002.94
2019-04-16T18:27:45.191Z,100993.39
2019-04-16T18:30:43.585Z,100989.11
2019-04-16T18:33:43.463Z,100978.30
2019-04-16T18:36:23.830Z,100970.96
2019-04-16T18:43:17.321Z,100991.33
2019-04-16T18:46:30.034Z,100990.84
2019-04-16T18:49:04.430Z,100990.02
2019-04-16T18:52:06.658Z,100977.48
2019-04-16T18:54:51.561Z,100987.45
2019-04-16T18:57:22.840Z,100997.83
2019-04-16T18:59:54.853Z,100999.97
2019-04-16T19:02:30.331Z,100995.63
2019-04-16T19:05:11.101Z,101002.63
2019-04-16T19:07:44.115Z,100993.06
2019-04-16T19:10:23.611Z,100990.06
2019-04-16T19:12:55.921Z,100956.89
2019-04-16T19:15:28.655Z,100985.68
2019-04-16T19:18:17.243Z,100985.68
2019-04-16T19:20:35.597Z,100985.75
2019-04-16T19:23:07.751Z,100979.73
2019-04-16T19:25:41.071Z,100975.91
2019-04-16T19:28:13.171Z,100980.75
2019-04-16T19:30:44.489Z,100968.13
2019-04-16T19:33:23.279Z,100985.50
2019-04-16T19:35:59.648Z,100980.75
2019-04-16T19:38:35.748Z,100976.77
2019-04-16T19:41:23.370Z,100977.66
2019-04-16T19:44:12.470Z,100975.86
2019-04-16T19:46:52.567Z,100978.86
2019-04-16T19:49:21.922Z,100970.13
2019-04-16T19:51:54.127Z,100967.50
2019-04-16T19:54:25.389Z,100974.88
2019-04-16T19:56:57.516Z,100957.92
2019-04-16T19:59:30.264Z,100964.06
2019-04-16T20:02:05.731Z,100961.44
2019-04-16T20:04:38.190Z,100961.88
2019-04-16T20:07:10.601Z,100944.88
2019-04-16T20:09:43.341Z,100934.45
2019-04-16T20:12:16.406Z,100935.75
2019-04-16T20:15:11.774Z,100930.56
2019-04-16T20:17:51.253Z,100939.19
2019-04-16T20:20:35.131Z,100941.38
2019-04-16T20:23:25.861Z,100939.66
2019-04-16T20:32:42.303Z,100926.03
2019-04-16T20:42:48.172Z,100951.01
2019-04-16T20:45:30.969Z,100947.48
2019-04-16T20:48:36.490Z,100941.40
2019-04-16T20:51:34.278Z,100941.03
2019-04-16T20:54:06.216Z,100941.12
2019-04-16T20:56:40.489Z,100937.58
2019-04-16T20:59:14.946Z,100942.41
2019-04-16T21:01:48.439Z,100935.05
2019-04-16T21:04:46.486Z,100936.35
2019-04-16T21:07:18.969Z,100938.55
2019-04-16T21:13:20.287Z,100914.03
2019-04-16T21:16:02.913Z,100949.44
2019-04-16T21:18:37.356Z,100945.10
2019-04-16T21:21:10.385Z,100940.45
2019-04-16T21:23:44.685Z,100952.62
2019-04-16T21:26:19.969Z,100948.67
2019-04-16T21:29:21.615Z,100962.94
2019-04-16T21:32:10.685Z,100964.23
2019-04-16T21:34:51.273Z,100959.89
2019-04-16T21:37:51.635Z,100954.21
2019-04-16T21:40:24.131Z,100959.42
2019-04-16T21:43:11.894Z,100962.16
2019-04-16T21:45:45.593Z,100967.78
2019-04-16T21:48:35.307Z,100969.56
2019-04-16T21:51:24.000Z,100959.58
2019-04-16T21:54:12.559Z,100963.08
2019-04-16T21:56:54.695Z,100958.91
2019-04-16T21:59:31.488Z,100949.11
2019-04-16T22:12:47.604Z,100956.22
2019-04-16T22:15:19.501Z,100967.62
2019-04-16T22:23:53.343Z,100980.54
2019-04-16T22:26:25.685Z,100980.67
2019-04-16T22:29:38.966Z,100982.91
2019-04-16T22:32:23.625Z,100986.47
